Time;durP1;ratioP1;P1;durP2;ratioP2;P2;SDS_P1;SDS_P2;PMS_P1;PMS_P2;Temp;Humidity;BMP_temperature;BMP_pressure;BME280_temperature;BME280_humidity;BME280_pressure;Samples;Min_cycle;Max_cycle;Signal;HPM_P1;HPM_P2
2022/12/09 00:01:10;;;;;;;18.57;10.87;;;-1.00;99.90;;;;;;5104365;28;20040;-60
2022/12/09 00:03:37;;;;;;;29.80;13.53;;;-1.00;99.90;;;;;;5095616;28;20044;-61
2022/12/09 00:06:12;;;;;;;60.60;14.70;;;-1.00;99.90;;;;;;5080811;28;20502;-60
2022/12/09 00:08:38;;;;;;;86.83;16.97;;;-1.00;99.90;;;;;;5093479;28;20043;-59
2022/12/09 00:11:06;;;;;;;50.00;15.10;;;-0.90;99.90;;;;;;5093503;28;20126;-61
2022/12/09 00:13:32;;;;;;;85.67;17.23;;;-0.90;99.90;;;;;;5082436;28;20472;-60
2022/12/09 00:15:57;;;;;;;74.17;15.07;;;-0.90;99.90;;;;;;5093144;28;20032;-60
2022/12/09 00:18:23;;;;;;;68.47;15.57;;;-0.90;99.90;;;;;;5075338;28;20092;-60
2022/12/09 00:20:49;;;;;;;112.53;17.50;;;-0.90;99.90;;;;;;5093431;28;20036;-58
2022/12/09 00:23:15;;;;;;;78.97;16.27;;;-0.90;99.90;;;;;;5086272;28;20108;-60
2022/12/09 00:25:40;;;;;;;178.17;23.73;;;-1.00;99.90;;;;;;5091229;28;20455;-60
2022/12/09 00:28:06;;;;;;;114.40;16.27;;;-0.90;99.90;;;;;;5093487;28;20064;-61
2022/12/09 00:30:32;;;;;;;116.63;16.57;;;-0.90;99.90;;;;;;5093347;28;20083;-60
2022/12/09 00:32:57;;;;;;;94.13;17.67;;;-1.00;99.90;;;;;;5074958;28;20052;-59
2022/12/09 00:35:23;;;;;;;78.13;14.93;;;-1.00;99.90;;;;;;5092583;28;20566;-61
2022/12/09 00:37:49;;;;;;;116.97;19.73;;;-1.00;99.90;;;;;;5075362;28;20043;-60
2022/12/09 00:40:15;;;;;;;44.00;15.80;;;-1.00;99.90;;;;;;5092909;28;20097;-60
2022/12/09 00:42:41;;;;;;;30.03;14.73;;;-1.00;99.90;;;;;;5092740;28;20070;-60
2022/12/09 00:45:07;;;;;;;104.53;19.57;;;-1.10;99.90;;;;;;5057651;28;20498;-58
2022/12/09 00:47:33;;;;;;;89.50;18.40;;;-1.00;99.90;;;;;;5075042;28;20032;-60
2022/12/09 00:49:59;;;;;;;48.97;16.33;;;-1.00;99.90;;;;;;5092729;28;20437;-60
2022/12/09 00:52:25;;;;;;;32.93;15.00;;;-1.00;99.90;;;;;;5074591;28;20036;-60
2022/12/09 00:54:50;;;;;;;75.83;18.87;;;-1.00;99.90;;;;;;5074514;28;20101;-60
2022/12/09 00:57:16;;;;;;;66.10;17.77;;;-1.10;99.90;;;;;;5092848;28;20389;-61
2022/12/09 00:59:42;;;;;;;103.20;17.23;;;-1.10;99.90;;;;;;5092280;28;20044;-60
2022/12/09 01:02:08;;;;;;;189.00;20.15;;;-1.10;99.90;;;;;;5074251;28;20044;-60
2022/12/09 01:04:33;;;;;;;79.60;14.07;;;-1.10;99.90;;;;;;5075449;28;20283;-58
2022/12/09 01:06:59;;;;;;;61.23;15.83;;;-1.10;99.90;;;;;;5107107;28;20419;-59
2022/12/09 01:09:25;;;;;;;105.27;15.47;;;-1.10;99.90;;;;;;5071674;28;20047;-60
2022/12/09 01:11:51;;;;;;;92.77;15.20;;;-1.10;99.90;;;;;;5092734;28;20043;-60
2022/12/09 01:14:16;;;;;;;98.60;14.27;;;-1.10;99.90;;;;;;5078443;28;20044;-60
2022/12/09 01:16:42;;;;;;;145.07;17.50;;;-1.10;99.90;;;;;;5092735;28;20040;-61
2022/12/09 01:19:11;;;;;;;97.30;13.83;;;-1.10;99.90;;;;;;5073964;28;20130;-60
2022/12/09 01:21:37;;;;;;;78.30;12.73;;;-1.00;99.90;;;;;;5075593;28;20069;-59
2022/12/09 01:24:10;;;;;;;116.67;14.47;;;-1.00;99.90;;;;;;5074334;28;20036;-59
2022/12/09 01:26:36;;;;;;;162.97;16.40;;;-1.00;99.90;;;;;;5079212;28;20033;-60
2022/12/09 01:29:02;;;;;;;117.90;16.27;;;-1.00;99.90;;;;;;5086860;28;20122;-60
2022/12/09 01:31:28;;;;;;;137.73;16.67;;;-0.90;99.90;;;;;;5090873;28;20035;-60
2022/12/09 01:33:55;;;;;;;68.37;14.10;;;-0.90;99.90;;;;;;5081717;28;20399;-60
2022/12/09 01:36:24;;;;;;;67.80;14.63;;;-0.90;99.90;;;;;;5064286;28;20044;-61
2022/12/09 01:38:50;;;;;;;96.97;17.47;;;-1.00;99.90;;;;;;5091867;28;20029;-59
2022/12/09 01:41:18;;;;;;;67.80;14.77;;;-0.90;99.90;;;;;;5074038;28;20108;-61
2022/12/09 01:43:44;;;;;;;28.07;11.50;;;-0.90;99.90;;;;;;5081851;28;20050;-60
2022/12/09 01:46:15;;;;;;;27.67;13.47;;;-0.90;99.90;;;;;;5077983;28;20482;-61
2022/12/09 01:48:45;;;;;;;27.33;12.73;;;-1.00;99.90;;;;;;5105840;28;20046;-60
2022/12/09 01:51:17;;;;;;;21.33;12.03;;;-1.00;99.90;;;;;;5072002;28;20049;-59
2022/12/09 01:53:46;;;;;;;20.73;11.60;;;-1.00;99.90;;;;;;5084206;28;20397;-60
2022/12/09 01:56:21;;;;;;;24.47;14.27;;;-1.00;99.90;;;;;;5091774;28;20036;-60
2022/12/09 01:58:48;;;;;;;19.60;12.23;;;-1.00;99.90;;;;;;5093455;28;20509;-59
2022/12/09 02:01:15;;;;;;;19.67;10.80;;;-1.00;99.90;;;;;;5091659;28;20086;-61
2022/12/09 02:03:40;;;;;;;23.83;13.00;;;-1.00;99.90;;;;;;5091175;28;20050;-60
2022/12/09 02:06:06;;;;;;;19.80;11.80;;;-1.00;99.90;;;;;;5094341;28;20044;-60
2022/12/09 02:08:32;;;;;;;20.70;12.87;;;-1.10;99.90;;;;;;5072296;28;20483;-60
2022/12/09 02:11:19;;;;;;;23.83;13.27;;;-1.10;99.90;;;;;;5088950;28;20051;-60
2022/12/09 02:14:06;;;;;;;22.00;13.47;;;-1.00;99.90;;;;;;5088598;28;20519;-60
2022/12/09 02:16:57;;;;;;;23.13;13.60;;;-1.10;99.90;;;;;;5086473;28;20101;-59
2022/12/09 02:20:00;;;;;;;21.13;12.03;;;-1.10;99.90;;;;;;5076915;28;20049;-60
2022/12/09 02:22:49;;;;;;;23.17;11.77;;;-1.20;99.90;;;;;;5097801;28;20040;-60
2022/12/09 02:25:30;;;;;;;25.30;14.07;;;-1.20;99.90;;;;;;5059154;28;20052;-59
2022/12/09 02:28:25;;;;;;;20.87;12.43;;;-1.10;99.90;;;;;;5094699;28;20108;-60
2022/12/09 02:31:03;;;;;;;26.67;14.90;;;-1.20;99.90;;;;;;5072833;28;20394;-60
2022/12/09 02:33:50;;;;;;;25.13;14.33;;;-1.10;99.90;;;;;;5069278;22;20035;-57
2022/12/09 02:36:18;;;;;;;24.97;13.40;;;-1.10;99.90;;;;;;5068855;28;20108;-57
2022/12/09 02:38:44;;;;;;;28.53;14.40;;;-1.00;99.90;;;;;;5072167;28;20063;-58
2022/12/09 02:41:17;;;;;;;26.83;13.53;;;-1.00;99.90;;;;;;5068294;28;20087;-59
2022/12/09 02:43:48;;;;;;;23.83;13.23;;;-1.00;99.90;;;;;;5073197;28;20422;-59
2022/12/09 02:46:18;;;;;;;24.63;14.33;;;-0.90;99.90;;;;;;5071909;28;20492;-58
2022/12/09 02:48:53;;;;;;;29.50;14.27;;;-0.90;99.90;;;;;;5070904;28;20062;-58
2022/12/09 02:51:21;;;;;;;24.03;13.90;;;-0.90;99.90;;;;;;5068114;28;20071;-57
2022/12/09 02:53:52;;;;;;;28.63;15.37;;;-0.90;99.90;;;;;;5066935;28;20047;-56
2022/12/09 02:56:19;;;;;;;24.30;14.27;;;-0.90;99.90;;;;;;5066088;28;20055;-60
2022/12/09 02:58:45;;;;;;;25.20;14.03;;;-0.90;99.90;;;;;;5068998;28;20414;-58
2022/12/09 03:01:30;;;;;;;25.03;13.10;;;-0.90;99.90;;;;;;5070550;28;20043;-59
2022/12/09 03:03:56;;;;;;;24.53;13.57;;;-0.90;99.90;;;;;;5071366;28;20731;-58
2022/12/09 03:06:32;;;;;;;24.77;13.70;;;-0.90;99.90;;;;;;5069479;28;20046;-58
2022/12/09 03:09:13;;;;;;;26.70;13.17;;;-1.00;99.90;;;;;;5066772;28;20040;-59
2022/12/09 03:11:39;;;;;;;27.63;13.47;;;-0.90;99.90;;;;;;5073221;28;20046;-57
2022/12/09 03:14:26;;;;;;;29.73;15.13;;;-1.00;99.90;;;;;;5080289;28;20075;-57
2022/12/09 03:17:07;;;;;;;27.57;15.70;;;-1.00;99.90;;;;;;5070833;28;20044;-61
2022/12/09 03:19:51;;;;;;;24.40;13.87;;;-1.00;99.90;;;;;;5072577;28;20044;-58
2022/12/09 03:22:22;;;;;;;26.27;14.57;;;-1.00;99.90;;;;;;5070506;28;20082;-59
2022/12/09 03:24:54;;;;;;;27.77;13.37;;;-0.90;99.90;;;;;;5069742;28;20047;-57
2022/12/09 03:27:27;;;;;;;23.90;11.70;;;-0.90;99.90;;;;;;5068634;28;20150;-58
2022/12/09 03:29:54;;;;;;;28.17;13.40;;;-0.80;99.90;;;;;;5069787;28;20032;-59
2022/12/09 03:32:25;;;;;;;25.13;13.97;;;-0.80;99.90;;;;;;5069250;28;20758;-56
2022/12/09 03:34:57;;;;;;;23.10;12.83;;;-0.80;99.90;;;;;;5070789;28;20039;-58
2022/12/09 03:37:23;;;;;;;25.87;13.67;;;-0.80;99.90;;;;;;5072753;28;20055;-56
2022/12/09 03:39:50;;;;;;;23.63;13.40;;;-0.80;99.90;;;;;;5073574;28;20040;-58
2022/12/09 03:42:21;;;;;;;24.10;13.13;;;-0.70;99.90;;;;;;5068363;28;20096;-58
2022/12/09 03:45:02;;;;;;;23.47;13.23;;;-0.70;99.90;;;;;;5067863;28;20123;-58
2022/12/09 03:47:28;;;;;;;22.63;13.13;;;-0.70;99.90;;;;;;5067749;28;20052;-58
2022/12/09 03:49:54;;;;;;;25.23;12.57;;;-0.70;99.90;;;;;;5061179;28;20044;-57
2022/12/09 03:52:34;;;;;;;25.67;12.90;;;-0.70;99.90;;;;;;5074290;28;20383;-57
2022/12/09 03:55:33;;;;;;;23.00;13.03;;;-0.60;99.90;;;;;;5075310;28;20309;-58
2022/12/09 03:58:02;;;;;;;22.87;12.27;;;-0.70;99.90;;;;;;5069817;28;20044;-57
2022/12/09 04:00:29;;;;;;;22.43;12.33;;;-0.70;99.90;;;;;;5073494;28;20085;-57
2022/12/09 04:02:54;;;;;;;23.33;13.03;;;-0.70;99.90;;;;;;5078604;28;20071;-58
2022/12/09 04:05:20;;;;;;;25.77;13.63;;;-0.70;99.90;;;;;;5073089;28;20142;-57
2022/12/09 04:07:46;;;;;;;23.80;13.70;;;-0.70;99.90;;;;;;5071539;28;20187;-59
2022/12/09 04:10:12;;;;;;;24.17;13.60;;;-0.70;99.90;;;;;;5073963;28;20511;-58
2022/12/09 04:12:38;;;;;;;26.08;13.82;;;-0.70;99.90;;;;;;5071232;28;20040;-58
2022/12/09 04:15:05;;;;;;;23.10;12.60;;;-0.70;99.90;;;;;;5052069;28;20048;-57
2022/12/09 04:17:31;;;;;;;21.80;11.83;;;-0.80;99.90;;;;;;5073495;28;20044;-59
2022/12/09 04:19:57;;;;;;;20.10;12.00;;;-0.80;99.90;;;;;;5079407;28;20219;-58
2022/12/09 04:22:24;;;;;;;24.27;13.63;;;-0.80;99.90;;;;;;5070603;28;20725;-57
2022/12/09 04:24:49;;;;;;;22.57;12.23;;;-0.80;99.90;;;;;;5070843;28;20040;-57
2022/12/09 04:27:15;;;;;;;19.07;10.93;;;-0.70;99.90;;;;;;5070823;28;20085;-56
2022/12/09 04:29:41;;;;;;;19.57;12.17;;;-0.70;99.90;;;;;;5053587;28;20057;-58
2022/12/09 04:32:07;;;;;;;26.30;13.63;;;-0.70;99.90;;;;;;5071495;28;20781;-58
2022/12/09 04:34:33;;;;;;;21.80;12.33;;;-0.70;99.90;;;;;;5055754;28;20054;-58
2022/12/09 04:36:59;;;;;;;22.70;12.33;;;-0.70;99.90;;;;;;5067883;28;20048;-56
2022/12/09 04:39:24;;;;;;;39.33;14.63;;;-0.70;99.90;;;;;;5069638;28;20693;-56
2022/12/09 04:41:50;;;;;;;23.60;11.00;;;-0.70;99.90;;;;;;5076605;28;20433;-55
2022/12/09 04:44:16;;;;;;;24.50;12.67;;;-0.70;99.90;;;;;;5074671;28;20067;-57
2022/12/09 04:46:41;;;;;;;23.87;13.60;;;-0.80;99.90;;;;;;5071192;28;20425;-58
2022/12/09 04:49:07;;;;;;;24.53;13.93;;;-0.80;99.90;;;;;;5073359;28;20996;-59
2022/12/09 04:51:33;;;;;;;22.67;13.87;;;-0.70;99.90;;;;;;5073024;28;20135;-58
2022/12/09 04:53:58;;;;;;;25.17;12.77;;;-0.70;99.90;;;;;;5074942;28;20043;-58
2022/12/09 04:56:24;;;;;;;25.83;14.13;;;-0.70;99.90;;;;;;5056792;28;21442;-59
2022/12/09 04:58:50;;;;;;;27.67;14.17;;;-0.70;99.90;;;;;;5068244;28;20036;-58
2022/12/09 05:01:19;;;;;;;23.37;12.20;;;-0.70;99.90;;;;;;5073898;28;20036;-58
2022/12/09 05:03:49;;;;;;;25.57;14.50;;;-0.70;99.90;;;;;;5071487;28;20889;-58
2022/12/09 05:06:16;;;;;;;22.07;12.97;;;-0.70;99.90;;;;;;5072124;28;20083;-57
2022/12/09 05:08:42;;;;;;;25.63;13.03;;;-0.70;99.90;;;;;;5071874;28;20164;-56
2022/12/09 05:11:08;;;;;;;19.17;11.50;;;-0.70;99.90;;;;;;5076106;28;20036;-58
2022/12/09 05:13:34;;;;;;;21.13;11.97;;;-0.70;99.90;;;;;;5072611;28;20478;-56
2022/12/09 05:16:05;;;;;;;23.05;13.32;;;-0.80;99.90;;;;;;5071083;28;20048;-58
2022/12/09 05:18:31;;;;;;;24.87;12.90;;;-0.80;99.90;;;;;;5074228;28;20044;-58
2022/12/09 05:20:56;;;;;;;22.57;12.50;;;-0.80;99.90;;;;;;5069872;28;20035;-56
2022/12/09 05:23:23;;;;;;;32.87;17.57;;;-0.80;99.90;;;;;;5071815;28;20109;-58
2022/12/09 05:25:49;;;;;;;36.03;17.90;;;-0.90;99.90;;;;;;5072213;28;20527;-57
2022/12/09 05:28:15;;;;;;;33.80;17.47;;;-1.00;99.90;;;;;;5072578;28;20036;-56
2022/12/09 05:30:41;;;;;;;30.33;15.37;;;-1.00;99.90;;;;;;5068813;28;20873;-59
2022/12/09 05:33:07;;;;;;;21.63;12.60;;;-1.00;99.90;;;;;;5070861;28;20186;-58
2022/12/09 05:35:32;;;;;;;25.20;14.80;;;-1.00;99.90;;;;;;5070047;28;20042;-59
2022/12/09 05:37:58;;;;;;;25.13;13.50;;;-1.10;99.90;;;;;;5068360;28;20258;-58
2022/12/09 05:40:24;;;;;;;25.60;14.27;;;-1.10;99.90;;;;;;5073173;28;20054;-59
2022/12/09 05:42:50;;;;;;;26.03;13.37;;;-1.10;99.90;;;;;;5073209;28;20533;-58
2022/12/09 05:45:15;;;;;;;24.90;12.63;;;-1.10;99.90;;;;;;5072318;28;20421;-57
2022/12/09 05:47:41;;;;;;;21.83;12.47;;;-1.20;99.90;;;;;;5074484;28;20470;-57
2022/12/09 05:50:10;;;;;;;24.60;13.40;;;-1.20;99.90;;;;;;5070656;28;20062;-58
2022/12/09 05:52:36;;;;;;;25.80;13.37;;;-1.20;99.90;;;;;;5071978;28;20566;-58
2022/12/09 05:55:04;;;;;;;24.70;13.13;;;-1.20;99.90;;;;;;5073827;28;20503;-58
2022/12/09 05:57:31;;;;;;;26.40;14.27;;;-1.20;99.90;;;;;;5078069;28;20042;-58
2022/12/09 05:59:57;;;;;;;25.27;13.57;;;-1.20;99.90;;;;;;5078805;28;20197;-58
2022/12/09 06:02:23;;;;;;;23.87;11.70;;;-1.20;99.90;;;;;;5075374;28;20344;-57
2022/12/09 06:04:49;;;;;;;24.10;13.87;;;-1.20;99.90;;;;;;5074252;28;20483;-56
2022/12/09 06:07:15;;;;;;;21.03;12.03;;;-1.20;99.90;;;;;;5066977;28;20039;-58
2022/12/09 06:09:40;;;;;;;26.33;13.13;;;-1.10;99.90;;;;;;5069546;28;20035;-58
2022/12/09 06:12:06;;;;;;;25.57;13.37;;;-1.10;99.90;;;;;;5057017;28;20051;-57
2022/12/09 06:14:32;;;;;;;26.30;15.40;;;-1.10;99.90;;;;;;5070750;28;20127;-57
2022/12/09 06:16:58;;;;;;;23.80;12.97;;;-1.10;99.90;;;;;;5053755;28;20044;-57
2022/12/09 06:19:23;;;;;;;26.77;14.77;;;-1.10;99.90;;;;;;5076336;28;20094;-59
2022/12/09 06:21:49;;;;;;;29.43;13.50;;;-1.00;99.90;;;;;;5074451;28;20609;-59
2022/12/09 06:24:15;;;;;;;22.07;11.83;;;-1.00;99.90;;;;;;5073020;28;20504;-58
2022/12/09 06:26:40;;;;;;;27.40;15.60;;;-0.90;99.90;;;;;;5069134;28;20047;-57
2022/12/09 06:29:06;;;;;;;32.67;16.40;;;-0.90;99.90;;;;;;5048232;28;20132;-58
2022/12/09 06:31:32;;;;;;;33.60;14.77;;;-0.80;99.90;;;;;;5067641;28;20056;-59
2022/12/09 06:33:58;;;;;;;29.67;14.73;;;-0.80;99.90;;;;;;5070422;28;20040;-58
2022/12/09 06:36:27;;;;;;;31.70;15.43;;;-0.70;99.90;;;;;;5043238;28;20062;-59
2022/12/09 06:38:53;;;;;;;30.70;16.67;;;-0.70;99.90;;;;;;5070219;28;20047;-58
2022/12/09 06:41:19;;;;;;;26.90;13.90;;;-0.70;99.90;;;;;;5058360;28;20518;-57
2022/12/09 06:43:45;;;;;;;29.35;15.90;;;-0.70;99.90;;;;;;5079584;28;20055;-58
2022/12/09 06:46:17;;;;;;;31.90;16.10;;;-0.70;99.90;;;;;;5072368;28;20114;-57
2022/12/09 06:48:43;;;;;;;35.37;17.60;;;-0.70;99.90;;;;;;5078575;28;20054;-58
2022/12/09 06:51:09;;;;;;;29.97;17.27;;;-0.60;99.90;;;;;;5075150;28;20039;-58
2022/12/09 06:53:34;;;;;;;32.33;16.63;;;-0.60;99.90;;;;;;5072061;28;20434;-57
2022/12/09 06:56:05;;;;;;;33.63;18.00;;;-0.60;99.90;;;;;;5073044;28;20176;-58
2022/12/09 06:58:32;;;;;;;33.43;16.83;;;-0.60;99.90;;;;;;5067261;28;20087;-57
2022/12/09 07:01:15;;;;;;;40.60;18.70;;;-0.60;99.90;;;;;;5068170;28;20036;-58
2022/12/09 07:03:46;;;;;;;36.73;18.17;;;-0.90;99.90;;;;;;5071221;28;20072;-56
2022/12/09 07:06:38;;;;;;;36.83;18.63;;;-0.50;99.90;;;;;;5072502;28;20048;-59
2022/12/09 07:09:07;;;;;;;40.17;19.97;;;-0.50;99.90;;;;;;5059844;28;20044;-59
2022/12/09 07:11:34;;;;;;;39.40;19.97;;;-0.50;99.90;;;;;;5062088;28;20159;-59
2022/12/09 07:14:00;;;;;;;41.03;20.90;;;-0.40;99.90;;;;;;5057637;28;20077;-59
2022/12/09 07:16:26;;;;;;;43.00;20.63;;;-0.40;99.90;;;;;;5060717;28;21666;-59
2022/12/09 07:18:52;;;;;;;36.27;18.20;;;-0.40;99.90;;;;;;5064445;28;20040;-58
2022/12/09 07:21:19;;;;;;;37.70;19.03;;;-0.40;99.90;;;;;;5066351;28;20048;-57
2022/12/09 07:23:46;;;;;;;44.77;21.80;;;-0.40;99.90;;;;;;5068213;28;20091;-58
2022/12/09 07:26:12;;;;;;;43.47;20.73;;;-0.40;99.90;;;;;;5064012;28;20130;-60
2022/12/09 07:28:43;;;;;;;47.87;23.07;;;-0.30;99.90;;;;;;5071802;28;20618;-57
2022/12/09 07:31:23;;;;;;;45.40;22.75;;;-0.30;99.90;;;;;;5065584;28;20040;-59
2022/12/09 07:33:50;;;;;;;54.50;25.33;;;-0.20;99.90;;;;;;5069843;28;20107;-57
2022/12/09 07:36:17;;;;;;;47.10;21.87;;;-0.20;99.90;;;;;;5060738;28;20052;-58
2022/12/09 07:38:43;;;;;;;48.55;22.52;;;-0.20;99.90;;;;;;5065523;28;20039;-58
2022/12/09 07:41:16;;;;;;;50.40;23.60;;;-0.10;99.90;;;;;;5067546;28;20085;-58
2022/12/09 07:43:47;;;;;;;55.42;23.35;;;-0.10;99.90;;;;;;5065063;28;20535;-59
2022/12/09 07:46:14;;;;;;;51.77;23.27;;;-0.10;99.90;;;;;;5064602;28;20173;-59
2022/12/09 07:48:41;;;;;;;54.10;23.90;;;-0.10;99.90;;;;;;5032218;28;20973;-58
2022/12/09 07:51:07;;;;;;;60.65;26.08;;;-0.10;99.90;;;;;;5066684;28;20081;-58
2022/12/09 07:53:36;;;;;;;57.10;26.35;;;0.00;99.90;;;;;;5063409;28;20063;-58
2022/12/09 07:56:05;;;;;;;56.17;25.88;;;0.00;99.90;;;;;;5062885;28;20058;-59
2022/12/09 07:58:31;;;;;;;59.47;25.35;;;0.00;99.90;;;;;;5067345;28;20529;-58
2022/12/09 08:00:56;;;;;;;64.22;28.63;;;0.00;99.90;;;;;;5062068;28;20029;-57
2022/12/09 08:03:22;;;;;;;70.77;29.70;;;0.10;99.90;;;;;;5069909;28;20098;-59
2022/12/09 08:05:49;;;;;;;73.35;31.55;;;0.10;99.90;;;;;;5068964;28;20035;-59
2022/12/09 08:08:15;;;;;;;109.97;32.08;;;0.20;99.90;;;;;;5071217;28;20052;-56
2022/12/09 08:10:41;;;;;;;131.90;34.92;;;0.20;99.90;;;;;;5072544;28;20062;-59
2022/12/09 08:13:07;;;;;;;127.85;34.22;;;0.30;99.90;;;;;;5073913;28;20044;-58
2022/12/09 08:15:33;;;;;;;268.60;46.88;;;0.30;99.90;;;;;;5063787;28;20042;-58
2022/12/09 08:17:58;;;;;;;124.50;34.20;;;0.30;99.90;;;;;;5063805;28;20170;-60
2022/12/09 08:20:24;;;;;;;171.75;36.20;;;0.30;99.90;;;;;;5068849;28;20986;-59
2022/12/09 08:22:50;;;;;;;187.88;35.92;;;0.30;99.90;;;;;;5070346;28;20036;-58
2022/12/09 08:25:16;;;;;;;106.25;31.67;;;0.30;99.90;;;;;;5062275;28;20040;-58
2022/12/09 08:27:41;;;;;;;153.95;32.35;;;0.40;99.90;;;;;;5074488;28;20123;-58
2022/12/09 08:30:07;;;;;;;113.70;32.67;;;0.40;99.90;;;;;;5070307;28;20887;-59
2022/12/09 08:32:33;;;;;;;145.13;33.55;;;0.40;99.90;;;;;;5067583;28;20130;-57
2022/12/09 08:34:59;;;;;;;112.30;32.78;;;0.40;99.90;;;;;;5066802;28;20032;-60
2022/12/09 08:37:25;;;;;;;168.02;32.78;;;0.40;99.90;;;;;;5067647;28;20532;-59
2022/12/09 08:39:50;;;;;;;116.28;30.50;;;0.40;99.90;;;;;;5072262;28;20093;-59
2022/12/09 08:42:16;;;;;;;178.10;33.53;;;0.40;99.90;;;;;;5077306;22;20050;-55
2022/12/09 08:44:42;;;;;;;126.68;31.20;;;0.40;99.90;;;;;;5005062;28;20184;-56
2022/12/09 08:47:08;;;;;;;176.88;34.85;;;0.30;99.90;;;;;;5007670;28;20075;-56
2022/12/09 08:49:33;;;;;;;173.13;34.15;;;0.30;99.90;;;;;;4998295;28;20136;-54
2022/12/09 08:51:59;;;;;;;115.63;29.42;;;0.30;99.90;;;;;;4989639;28;20210;-54
2022/12/09 08:54:25;;;;;;;149.07;30.58;;;0.30;99.90;;;;;;4989021;28;20085;-54
2022/12/09 08:56:53;;;;;;;141.68;32.05;;;0.30;99.90;;;;;;4981209;28;20061;-56
2022/12/09 08:59:20;;;;;;;256.17;40.17;;;0.30;99.90;;;;;;4965245;28;20100;-56
2022/12/09 09:01:46;;;;;;;147.65;35.10;;;0.40;99.90;;;;;;4971437;28;20054;-56
2022/12/09 09:04:15;;;;;;;193.02;37.22;;;0.40;99.90;;;;;;4975632;28;20168;-55
2022/12/09 09:06:43;;;;;;;127.47;32.53;;;0.40;99.90;;;;;;4989475;28;20401;-55
2022/12/09 09:09:10;;;;;;;147.77;32.85;;;0.40;99.90;;;;;;4964693;28;20449;-56
2022/12/09 09:11:37;;;;;;;223.18;37.65;;;0.40;99.90;;;;;;4956760;28;21677;-55
2022/12/09 09:14:05;;;;;;;156.40;34.13;;;0.50;99.90;;;;;;4968458;28;20185;-58
2022/12/09 09:16:32;;;;;;;97.78;31.48;;;0.50;99.90;;;;;;4970871;28;20115;-56
2022/12/09 09:18:58;;;;;;;132.70;33.50;;;0.50;99.90;;;;;;4953757;28;20046;-59
2022/12/09 09:21:27;;;;;;;125.45;32.38;;;0.50;99.90;;;;;;4964893;28;20053;-58
2022/12/09 09:23:53;;;;;;;101.15;31.20;;;0.50;99.90;;;;;;4987677;28;20034;-59
2022/12/09 09:26:22;;;;;;;116.13;31.70;;;0.60;99.90;;;;;;4965525;28;21552;-58
2022/12/09 09:28:48;;;;;;;97.60;32.17;;;0.60;99.90;;;;;;4971696;28;20054;-56
2022/12/09 09:31:16;;;;;;;106.97;31.10;;;0.60;99.90;;;;;;4957025;28;20934;-56
2022/12/09 09:33:43;;;;;;;91.13;27.88;;;0.60;99.90;;;;;;4969278;28;20777;-56
2022/12/09 09:36:13;;;;;;;102.53;32.35;;;0.60;99.90;;;;;;4959823;28;20060;-56
2022/12/09 09:38:39;;;;;;;91.53;30.05;;;0.60;99.90;;;;;;4997349;28;20058;-55
2022/12/09 09:41:43;;;;;;;89.65;30.55;;;0.60;99.90;;;;;;4993130;28;20705;-56
2022/12/09 09:44:24;;;;;;;103.57;30.17;;;0.70;99.90;;;;;;4958884;28;20050;-56
2022/12/09 09:46:51;;;;;;;102.57;30.27;;;0.70;99.90;;;;;;4973954;28;20132;-55
2022/12/09 09:49:48;;;;;;;133.48;32.58;;;0.70;99.90;;;;;;4986521;28;20046;-55
2022/12/09 09:52:21;;;;;;;122.78;28.55;;;0.70;99.90;;;;;;4981284;28;20054;-56
2022/12/09 09:54:47;;;;;;;117.17;30.73;;;0.80;99.90;;;;;;4964735;28;22382;-56
2022/12/09 09:57:31;;;;;;;91.72;28.90;;;0.70;99.90;;;;;;4981683;28;21091;-55
2022/12/09 10:00:12;;;;;;;150.02;32.65;;;0.70;99.90;;;;;;4974103;28;20077;-56
2022/12/09 10:02:46;;;;;;;149.35;32.17;;;0.70;99.90;;;;;;4954987;28;20741;-56
2022/12/09 10:05:18;;;;;;;128.25;31.52;;;0.70;99.90;;;;;;4958364;28;20401;-55
2022/12/09 10:07:50;;;;;;;120.55;29.35;;;0.70;99.90;;;;;;4980986;28;20583;-56
2022/12/09 10:10:40;;;;;;;130.90;30.35;;;0.70;99.90;;;;;;4979965;28;20065;-56
2022/12/09 10:13:29;;;;;;;108.03;30.58;;;0.80;99.90;;;;;;4985837;28;20038;-55
2022/12/09 10:15:57;;;;;;;109.22;29.77;;;0.80;99.90;;;;;;4970104;28;20579;-56
2022/12/09 10:18:35;;;;;;;115.95;29.92;;;0.80;99.90;;;;;;4988042;28;20046;-56
2022/12/09 10:21:01;;;;;;;101.88;27.05;;;0.80;99.90;;;;;;4949786;28;20053;-56
2022/12/09 10:23:31;;;;;;;94.28;28.77;;;0.80;99.90;;;;;;4980235;28;20038;-56
2022/12/09 10:26:01;;;;;;;101.70;26.83;;;0.80;99.90;;;;;;4936661;28;20050;-57
2022/12/09 10:28:42;;;;;;;127.88;29.02;;;0.80;99.90;;;;;;4960807;28;20497;-56
2022/12/09 10:31:10;;;;;;;68.03;24.73;;;0.80;99.90;;;;;;4973192;28;20053;-57
2022/12/09 10:33:37;;;;;;;98.00;26.52;;;0.80;99.90;;;;;;4987195;28;20095;-56
2022/12/09 10:36:06;;;;;;;87.97;27.45;;;0.90;99.90;;;;;;4970296;28;20170;-56
2022/12/09 10:38:36;;;;;;;80.00;24.40;;;0.90;99.90;;;;;;4983382;28;20410;-56
2022/12/09 10:41:11;;;;;;;77.47;26.85;;;0.90;99.90;;;;;;4991382;28;20050;-56
2022/12/09 10:43:39;;;;;;;76.05;25.25;;;1.00;99.90;;;;;;5015609;28;20354;-56
2022/12/09 10:46:14;;;;;;;79.93;25.95;;;1.00;99.90;;;;;;5006919;28;20045;-55
2022/12/09 10:48:46;;;;;;;105.18;26.63;;;1.00;99.90;;;;;;4988243;28;20443;-56
2022/12/09 10:51:20;;;;;;;73.20;26.00;;;1.00;99.90;;;;;;5011009;28;20289;-55
2022/12/09 10:53:55;;;;;;;62.63;23.83;;;1.00;99.90;;;;;;5001631;28;20080;-56
2022/12/09 10:56:36;;;;;;;130.10;29.10;;;1.00;99.90;;;;;;5013993;28;20042;-55
2022/12/09 10:59:22;;;;;;;66.88;23.23;;;1.10;99.90;;;;;;5016917;28;20056;-56
2022/12/09 11:01:52;;;;;;;77.53;23.38;;;1.10;99.90;;;;;;4989466;28;20121;-56
2022/12/09 11:04:27;;;;;;;73.22;25.15;;;1.10;99.90;;;;;;4994766;28;20095;-57
2022/12/09 11:07:01;;;;;;;70.75;22.67;;;1.10;99.90;;;;;;4989627;28;20209;-55
2022/12/09 11:09:36;;;;;;;62.95;22.90;;;1.20;99.90;;;;;;5011252;28;20162;-56
2022/12/09 11:12:04;;;;;;;63.75;23.15;;;1.20;99.90;;;;;;5012736;28;20111;-56
2022/12/09 11:14:40;;;;;;;101.47;25.70;;;1.30;99.90;;;;;;4975963;28;20563;-56
2022/12/09 11:17:54;;;;;;;55.60;23.40;;;1.30;99.90;;;;;;4989936;28;20045;-56
2022/12/09 11:20:22;;;;;;;55.13;21.63;;;1.20;99.90;;;;;;4908068;29;20074;-56
2022/12/09 11:23:14;;;;;;;60.88;21.60;;;1.20;99.90;;;;;;4970965;28;20042;-56
2022/12/09 11:25:53;;;;;;;72.15;22.75;;;1.70;99.90;;;;;;4982201;28;20490;-56
2022/12/09 11:28:25;;;;;;;47.33;23.27;;;1.20;99.90;;;;;;5009896;28;20512;-56
2022/12/09 11:30:51;;;;;;;84.15;26.05;;;1.30;99.90;;;;;;5008668;28;20087;-55
2022/12/09 11:33:31;;;;;;;60.00;22.63;;;1.30;99.90;;;;;;5008438;28;20520;-55
2022/12/09 11:36:03;;;;;;;62.00;22.40;;;1.40;99.90;;;;;;4993920;28;20042;-56
2022/12/09 11:38:29;;;;;;;57.83;23.58;;;1.40;99.90;;;;;;5017729;28;20038;-56
2022/12/09 11:41:01;;;;;;;74.82;25.33;;;1.40;99.90;;;;;;5013839;28;20104;-56
2022/12/09 11:43:46;;;;;;;64.28;24.55;;;1.40;99.90;;;;;;4983902;28;20368;-56
2022/12/09 11:46:12;;;;;;;50.08;22.48;;;1.40;99.90;;;;;;4983274;28;20051;-55
2022/12/09 11:48:48;;;;;;;63.85;23.63;;;1.40;99.90;;;;;;4985869;28;20042;-56
2022/12/09 11:51:21;;;;;;;52.38;22.58;;;1.50;99.90;;;;;;4986578;28;20120;-56
2022/12/09 11:53:47;;;;;;;56.00;21.75;;;1.50;99.90;;;;;;4995888;28;20038;-56
2022/12/09 11:56:18;;;;;;;54.45;21.95;;;1.50;99.90;;;;;;4986660;28;20073;-56
2022/12/09 11:58:59;;;;;;;52.40;22.75;;;1.50;99.90;;;;;;4985102;28;20041;-56
2022/12/09 12:01:55;;;;;;;57.53;23.40;;;1.40;99.90;;;;;;5003196;28;20513;-56
2022/12/09 12:04:31;;;;;;;55.75;21.40;;;1.50;99.90;;;;;;4960687;28;20050;-56
2022/12/09 12:07:20;;;;;;;46.22;22.23;;;1.50;99.90;;;;;;5001322;28;20038;-58
2022/12/09 12:09:54;;;;;;;60.90;22.75;;;1.50;99.90;;;;;;5015215;28;20477;-59
2022/12/09 12:12:47;;;;;;;62.00;23.13;;;1.50;99.90;;;;;;4997690;28;20041;-58
2022/12/09 12:15:49;;;;;;;78.45;21.98;;;1.60;99.90;;;;;;5000112;28;20046;-59
2022/12/09 12:18:21;;;;;;;80.93;22.55;;;1.50;99.90;;;;;;5013664;28;20052;-58
2022/12/09 12:21:05;;;;;;;103.43;27.10;;;1.50;99.90;;;;;;5008770;28;20385;-57
2022/12/09 12:24:10;;;;;;;56.90;22.55;;;1.50;99.90;;;;;;4999272;28;20071;-57
2022/12/09 12:26:41;;;;;;;56.90;22.15;;;1.50;99.90;;;;;;4957506;28;20048;-58
2022/12/09 12:29:36;;;;;;;79.03;23.13;;;1.50;99.90;;;;;;5019681;28;20065;-57
2022/12/09 12:32:01;;;;;;;76.40;24.77;;;1.60;99.90;;;;;;4975241;28;20058;-57
2022/12/09 12:34:53;;;;;;;70.80;22.13;;;1.50;99.90;;;;;;5016086;28;20045;-57
2022/12/09 12:38:04;;;;;;;86.28;25.65;;;1.60;99.90;;;;;;4998666;28;20481;-58
2022/12/09 12:40:50;;;;;;;91.70;24.38;;;1.60;99.90;;;;;;4934263;28;20523;-57
2022/12/09 12:46:25;;;;;;;138.82;29.67;;;1.50;99.90;;;;;;5003334;28;20046;-58
2022/12/09 12:49:21;;;;;;;79.70;26.45;;;1.50;99.90;;;;;;5014012;28;20046;-58